sensor_id;sensor_type;location;lat;lon;timestamp;pressure;altitude;pressure_sealevel;temperature;humidity
60852;BME280;48553;50.766;2.900;2024-03-08T00:00:38;100720.72;;;6.44;94.28
60852;BME280;48553;50.766;2.900;2024-03-08T00:03:40;100717.34;;;6.38;94.35
60852;BME280;48553;50.766;2.900;2024-03-08T00:06:41;100721.16;;;6.37;94.30
60852;BME280;48553;50.766;2.900;2024-03-08T00:09:41;100707.53;;;6.37;94.28
60852;BME280;48553;50.766;2.900;2024-03-08T00:12:44;100705.44;;;6.34;93.97
60852;BME280;48553;50.766;2.900;2024-03-08T00:15:45;100699.50;;;6.32;94.35
60852;BME280;48553;50.766;2.900;2024-03-08T00:18:45;100704.44;;;6.30;93.94
60852;BME280;48553;50.766;2.900;2024-03-08T00:21:46;100699.31;;;6.28;93.89
60852;BME280;48553;50.766;2.900;2024-03-08T00:24:46;100702.94;;;6.24;94.13
60852;BME280;48553;50.766;2.900;2024-03-08T00:27:47;100691.56;;;6.22;94.13
60852;BME280;48553;50.766;2.900;2024-03-08T00:30:49;100694.91;;;6.19;94.08
60852;BME280;48553;50.766;2.900;2024-03-08T00:33:50;100689.75;;;6.17;94.21
60852;BME280;48553;50.766;2.900;2024-03-08T00:36:50;100695.53;;;6.16;94.35
60852;BME280;48553;50.766;2.900;2024-03-08T00:39:52;100686.38;;;6.12;94.45
60852;BME280;48553;50.766;2.900;2024-03-08T00:42:53;100699.19;;;6.11;94.25
60852;BME280;48553;50.766;2.900;2024-03-08T00:45:53;100685.56;;;6.11;94.02
60852;BME280;48553;50.766;2.900;2024-03-08T00:48:54;100683.44;;;6.08;94.45
60852;BME280;48553;50.766;2.900;2024-03-08T00:51:55;100690.31;;;6.05;93.95
60852;BME280;48553;50.766;2.900;2024-03-08T00:54:56;100676.53;;;6.02;94.40
60852;BME280;48553;50.766;2.900;2024-03-08T00:57:57;100675.53;;;5.98;94.36
60852;BME280;48553;50.766;2.900;2024-03-08T01:00:57;100676.13;;;5.95;94.38
60852;BME280;48553;50.766;2.900;2024-03-08T01:03:57;100669.06;;;5.94;94.52
60852;BME280;48553;50.766;2.900;2024-03-08T01:06:59;100669.06;;;5.94;94.35
60852;BME280;48553;50.766;2.900;2024-03-08T01:09:59;100661.19;;;5.92;94.29
60852;BME280;48553;50.766;2.900;2024-03-08T01:13:01;100659.09;;;5.89;94.13
60852;BME280;48553;50.766;2.900;2024-03-08T01:16:01;100654.28;;;5.86;94.30
60852;BME280;48553;50.766;2.900;2024-03-08T01:19:01;100649.94;;;5.85;94.58
60852;BME280;48553;50.766;2.900;2024-03-08T01:22:03;100645.63;;;5.84;94.40
60852;BME280;48553;50.766;2.900;2024-03-08T01:25:04;100633.44;;;5.81;94.36
60852;BME280;48553;50.766;2.900;2024-03-08T01:28:05;100635.16;;;5.77;94.59
60852;BME280;48553;50.766;2.900;2024-03-08T01:31:05;100621.56;;;5.77;94.45
60852;BME280;48553;50.766;2.900;2024-03-08T01:34:06;100620.78;;;5.77;94.51
60852;BME280;48553;50.766;2.900;2024-03-08T01:37:06;100621.88;;;5.76;94.35
60852;BME280;48553;50.766;2.900;2024-03-08T01:40:07;100608.06;;;5.72;94.35
60852;BME280;48553;50.766;2.900;2024-03-08T01:43:28;100595.88;;;5.70;94.60
60852;BME280;48553;50.766;2.900;2024-03-08T01:46:29;100597.31;;;5.67;94.86
60852;BME280;48553;50.766;2.900;2024-03-08T01:49:31;100596.00;;;5.64;94.56
60852;BME280;48553;50.766;2.900;2024-03-08T01:52:35;100597.13;;;5.63;94.65
60852;BME280;48553;50.766;2.900;2024-03-08T01:55:36;100590.69;;;5.59;94.87
60852;BME280;48553;50.766;2.900;2024-03-08T01:58:38;100587.19;;;5.59;94.76
60852;BME280;48553;50.766;2.900;2024-03-08T02:01:39;100576.59;;;5.57;94.69
60852;BME280;48553;50.766;2.900;2024-03-08T02:04:40;100580.75;;;5.55;94.88
60852;BME280;48553;50.766;2.900;2024-03-08T02:07:41;100569.38;;;5.53;94.87
60852;BME280;48553;50.766;2.900;2024-03-08T02:10:44;100566.16;;;5.51;94.73
60852;BME280;48553;50.766;2.900;2024-03-08T02:13:45;100566.66;;;5.53;95.28
60852;BME280;48553;50.766;2.900;2024-03-08T02:16:45;100555.91;;;5.48;95.13
60852;BME280;48553;50.766;2.900;2024-03-08T02:19:45;100554.78;;;5.49;95.38
60852;BME280;48553;50.766;2.900;2024-03-08T02:22:47;100558.13;;;5.46;95.08
60852;BME280;48553;50.766;2.900;2024-03-08T02:25:48;100556.19;;;5.46;95.15
60852;BME280;48553;50.766;2.900;2024-03-08T02:28:49;100546.75;;;5.43;94.77
60852;BME280;48553;50.766;2.900;2024-03-08T02:31:53;100536.16;;;5.42;95.07
60852;BME280;48553;50.766;2.900;2024-03-08T02:34:56;100527.84;;;5.38;94.99
60852;BME280;48553;50.766;2.900;2024-03-08T02:38:00;100524.63;;;5.36;95.23
60852;BME280;48553;50.766;2.900;2024-03-08T02:41:00;100521.41;;;5.34;95.26
60852;BME280;48553;50.766;2.900;2024-03-08T02:44:01;100514.69;;;5.32;94.98
60852;BME280;48553;50.766;2.900;2024-03-08T02:47:01;100510.53;;;5.34;94.85
60852;BME280;48553;50.766;2.900;2024-03-08T02:50:01;100506.31;;;5.28;95.21
60852;BME280;48553;50.766;2.900;2024-03-08T02:53:04;100501.69;;;5.29;95.16
60852;BME280;48553;50.766;2.900;2024-03-08T02:56:04;100498.47;;;5.27;94.72
60852;BME280;48553;50.766;2.900;2024-03-08T02:59:08;100495.75;;;5.27;95.20
60852;BME280;48553;50.766;2.900;2024-03-08T03:02:09;100490.94;;;5.23;94.94
60852;BME280;48553;50.766;2.900;2024-03-08T03:05:10;100492.06;;;5.22;94.99
60852;BME280;48553;50.766;2.900;2024-03-08T03:08:11;100493.44;;;5.20;94.96
60852;BME280;48553;50.766;2.900;2024-03-08T03:11:13;100492.97;;;5.18;94.98
60852;BME280;48553;50.766;2.900;2024-03-08T03:14:13;100490.25;;;5.18;95.14
60852;BME280;48553;50.766;2.900;2024-03-08T03:17:14;100495.50;;;5.14;95.20
60852;BME280;48553;50.766;2.900;2024-03-08T03:20:14;100482.19;;;5.13;95.15
60852;BME280;48553;50.766;2.900;2024-03-08T03:23:15;100486.03;;;5.12;94.92
60852;BME280;48553;50.766;2.900;2024-03-08T03:26:20;100477.09;;;5.11;94.99
60852;BME280;48553;50.766;2.900;2024-03-08T03:29:22;100471.47;;;5.08;95.05
60852;BME280;48553;50.766;2.900;2024-03-08T03:32:22;100474.97;;;5.08;94.99
60852;BME280;48553;50.766;2.900;2024-03-08T03:35:23;100469.38;;;5.05;95.15
60852;BME280;48553;50.766;2.900;2024-03-08T03:38:24;100462.31;;;5.03;95.10
60852;BME280;48553;50.766;2.900;2024-03-08T03:41:26;100464.53;;;5.01;94.95
60852;BME280;48553;50.766;2.900;2024-03-08T03:44:26;100448.56;;;5.00;95.19
60852;BME280;48553;50.766;2.900;2024-03-08T03:47:27;100449.34;;;5.00;94.98
60852;BME280;48553;50.766;2.900;2024-03-08T03:50:27;100453.97;;;5.00;95.01
60852;BME280;48553;50.766;2.900;2024-03-08T03:53:27;100454.06;;;4.95;95.11
60852;BME280;48553;50.766;2.900;2024-03-08T03:56:28;100457.28;;;4.97;94.93
60852;BME280;48553;50.766;2.900;2024-03-08T03:59:28;100450.88;;;4.93;95.10
60852;BME280;48553;50.766;2.900;2024-03-08T04:02:29;100444.13;;;4.90;94.89
60852;BME280;48553;50.766;2.900;2024-03-08T04:05:30;100440.63;;;4.90;94.76
60852;BME280;48553;50.766;2.900;2024-03-08T04:08:31;100434.38;;;4.89;94.97
60852;BME280;48553;50.766;2.900;2024-03-08T04:11:34;100435.81;;;4.87;94.98
60852;BME280;48553;50.766;2.900;2024-03-08T04:14:35;100429.06;;;4.84;95.11
60852;BME280;48553;50.766;2.900;2024-03-08T04:17:35;100421.22;;;4.82;95.34
60852;BME280;48553;50.766;2.900;2024-03-08T04:20:39;100416.91;;;4.81;95.16
60852;BME280;48553;50.766;2.900;2024-03-08T04:23:40;100417.22;;;4.80;95.14
60852;BME280;48553;50.766;2.900;2024-03-08T04:26:40;100407.78;;;4.77;95.13
60852;BME280;48553;50.766;2.900;2024-03-08T04:29:41;100413.19;;;4.77;95.03
60852;BME280;48553;50.766;2.900;2024-03-08T04:32:41;100414.00;;;4.78;95.13
60852;BME280;48553;50.766;2.900;2024-03-08T04:35:42;100409.19;;;4.75;95.02
60852;BME280;48553;50.766;2.900;2024-03-08T04:38:46;100405.47;;;4.71;95.11
60852;BME280;48553;50.766;2.900;2024-03-08T04:41:46;100417.41;;;4.70;95.23
60852;BME280;48553;50.766;2.900;2024-03-08T04:44:47;100417.41;;;4.70;94.94
60852;BME280;48553;50.766;2.900;2024-03-08T04:47:47;100404.47;;;4.67;95.26
60852;BME280;48553;50.766;2.900;2024-03-08T04:50:48;100403.34;;;4.68;95.11
60852;BME280;48553;50.766;2.900;2024-03-08T04:53:49;100403.69;;;4.66;95.00
60852;BME280;48553;50.766;2.900;2024-03-08T04:56:49;100399.66;;;4.64;95.17
60852;BME280;48553;50.766;2.900;2024-03-08T04:59:50;100406.50;;;4.61;95.01
60852;BME280;48553;50.766;2.900;2024-03-08T05:02:50;100398.38;;;4.61;95.11
60852;BME280;48553;50.766;2.900;2024-03-08T05:05:53;100398.66;;;4.59;95.26
60852;BME280;48553;50.766;2.900;2024-03-08T05:08:53;100397.34;;;4.57;94.78
60852;BME280;48553;50.766;2.900;2024-03-08T05:11:54;100399.75;;;4.58;95.01
60852;BME280;48553;50.766;2.900;2024-03-08T05:14:54;100402.28;;;4.55;95.17
60852;BME280;48553;50.766;2.900;2024-03-08T05:17:55;100396.34;;;4.53;95.38
60852;BME280;48553;50.766;2.900;2024-03-08T05:20:58;100390.41;;;4.51;95.27
60852;BME280;48553;50.766;2.900;2024-03-08T05:23:58;100383.41;;;4.50;95.29
60852;BME280;48553;50.766;2.900;2024-03-08T05:26:59;100383.41;;;4.50;95.28
60852;BME280;48553;50.766;2.900;2024-03-08T05:30:03;100385.13;;;4.46;95.38
60852;BME280;48553;50.766;2.900;2024-03-08T05:33:04;100386.72;;;4.47;95.31
60852;BME280;48553;50.766;2.900;2024-03-08T05:36:05;100370.84;;;4.40;95.43
60852;BME280;48553;50.766;2.900;2024-03-08T05:39:06;100364.63;;;4.39;95.36
60852;BME280;48553;50.766;2.900;2024-03-08T05:42:07;100367.31;;;4.39;95.37
60852;BME280;48553;50.766;2.900;2024-03-08T05:45:09;100360.81;;;4.41;95.01
60852;BME280;48553;50.766;2.900;2024-03-08T05:48:13;100348.13;;;4.36;95.13
60852;BME280;48553;50.766;2.900;2024-03-08T05:51:13;100347.31;;;4.35;95.38
60852;BME280;48553;50.766;2.900;2024-03-08T05:54:14;100339.50;;;4.34;95.20
60852;BME280;48553;50.766;2.900;2024-03-08T05:57:14;100339.31;;;4.30;95.08
60852;BME280;48553;50.766;2.900;2024-03-08T06:00:15;100332.75;;;4.31;95.05
60852;BME280;48553;50.766;2.900;2024-03-08T06:03:15;100332.28;;;4.29;95.15
60852;BME280;48553;50.766;2.900;2024-03-08T06:06:16;100326.66;;;4.26;95.22
60852;BME280;48553;50.766;2.900;2024-03-08T06:09:18;100314.69;;;4.27;95.19
60852;BME280;48553;50.766;2.900;2024-03-08T06:12:23;100301.44;;;4.25;95.21
60852;BME280;48553;50.766;2.900;2024-03-08T06:15:24;100309.09;;;4.23;94.95
60852;BME280;48553;50.766;2.900;2024-03-08T06:18:24;100306.66;;;4.22;95.18
60852;BME280;48553;50.766;2.900;2024-03-08T06:21:25;100312.38;;;4.20;95.01
60852;BME280;48553;50.766;2.900;2024-03-08T06:24:28;100318.13;;;4.18;95.05
60852;BME280;48553;50.766;2.900;2024-03-08T06:27:28;100321.44;;;4.15;95.20
60852;BME280;48553;50.766;2.900;2024-03-08T06:30:29;100323.06;;;4.16;95.27
60852;BME280;48553;50.766;2.900;2024-03-08T06:33:29;100318.41;;;4.17;95.03
60852;BME280;48553;50.766;2.900;2024-03-08T06:36:32;100318.72;;;4.15;94.87
60852;BME280;48553;50.766;2.900;2024-03-08T06:39:33;100323.84;;;4.17;94.94
60852;BME280;48553;50.766;2.900;2024-03-08T06:42:35;100316.63;;;4.12;94.86
60852;BME280;48553;50.766;2.900;2024-03-08T06:45:36;100315.53;;;4.13;95.01
60852;BME280;48553;50.766;2.900;2024-03-08T06:48:38;100312.50;;;4.15;95.14
60852;BME280;48553;50.766;2.900;2024-03-08T06:51:39;100309.50;;;4.16;94.94
60852;BME280;48553;50.766;2.900;2024-03-08T06:54:41;100308.38;;;4.17;94.81
60852;BME280;48553;50.766;2.900;2024-03-08T06:57:41;100308.88;;;4.19;94.81
60852;BME280;48553;50.766;2.900;2024-03-08T07:00:42;100313.78;;;4.17;95.04
60852;BME280;48553;50.766;2.900;2024-03-08T07:03:44;100309.38;;;4.22;95.04
60852;BME280;48553;50.766;2.900;2024-03-08T07:06:44;100308.47;;;4.26;95.06
60852;BME280;48553;50.766;2.900;2024-03-08T07:09:45;100301.63;;;4.29;95.17
60852;BME280;48553;50.766;2.900;2024-03-08T07:12:45;100299.41;;;4.31;95.03
60852;BME280;48553;50.766;2.900;2024-03-08T07:15:46;100299.91;;;4.33;95.30
60852;BME280;48553;50.766;2.900;2024-03-08T07:18:47;100287.56;;;4.41;95.20
60852;BME280;48553;50.766;2.900;2024-03-08T07:21:47;100292.06;;;4.45;95.14
60852;BME280;48553;50.766;2.900;2024-03-08T07:24:48;100290.16;;;4.46;95.21
60852;BME280;48553;50.766;2.900;2024-03-08T07:28:07;100284.31;;;4.52;95.41
60852;BME280;48553;50.766;2.900;2024-03-08T07:31:07;100271.91;;;4.60;95.24
60852;BME280;48553;50.766;2.900;2024-03-08T07:34:16;100272.59;;;4.66;95.08
60852;BME280;48553;50.766;2.900;2024-03-08T07:37:17;100280.63;;;4.71;94.98
60852;BME280;48553;50.766;2.900;2024-03-08T07:40:19;100266.59;;;4.77;95.12
60852;BME280;48553;50.766;2.900;2024-03-08T07:43:19;100267.78;;;4.85;95.19
60852;BME280;48553;50.766;2.900;2024-03-08T07:46:20;100267.34;;;4.92;95.08
60852;BME280;48553;50.766;2.900;2024-03-08T07:49:20;100257.16;;;4.97;95.04
60852;BME280;48553;50.766;2.900;2024-03-08T07:52:20;100252.41;;;5.03;95.14
60852;BME280;48553;50.766;2.900;2024-03-08T07:55:21;100248.13;;;5.11;94.94
60852;BME280;48553;50.766;2.900;2024-03-08T07:58:24;100243.53;;;5.20;94.72
60852;BME280;48553;50.766;2.900;2024-03-08T08:01:24;100235.75;;;5.27;94.73
60852;BME280;48553;50.766;2.900;2024-03-08T08:04:25;100243.47;;;5.34;94.66
60852;BME280;48553;50.766;2.900;2024-03-08T08:07:26;100232.09;;;5.40;94.27
60852;BME280;48553;50.766;2.900;2024-03-08T08:10:27;100228.00;;;5.52;94.37
60852;BME280;48553;50.766;2.900;2024-03-08T08:13:28;100224.50;;;5.60;93.70
60852;BME280;48553;50.766;2.900;2024-03-08T08:16:32;100223.41;;;5.70;93.45
60852;BME280;48553;50.766;2.900;2024-03-08T08:19:32;100217.53;;;5.76;93.09
60852;BME280;48553;50.766;2.900;2024-03-08T08:22:33;100214.19;;;5.88;93.04
60852;BME280;48553;50.766;2.900;2024-03-08T08:25:33;100211.03;;;5.95;92.55
60852;BME280;48553;50.766;2.900;2024-03-08T08:28:34;100215.53;;;6.08;92.40
60852;BME280;48553;50.766;2.900;2024-03-08T08:31:35;100203.84;;;6.16;92.20
60852;BME280;48553;50.766;2.900;2024-03-08T08:34:35;100210.41;;;6.24;92.03
60852;BME280;48553;50.766;2.900;2024-03-08T08:37:38;100212.03;;;6.34;91.96
60852;BME280;48553;50.766;2.900;2024-03-08T08:40:39;100197.28;;;6.43;91.80
60852;BME280;48553;50.766;2.900;2024-03-08T08:43:39;100191.19;;;6.55;91.28
60852;BME280;48553;50.766;2.900;2024-03-08T08:46:43;100197.09;;;6.66;91.17
60852;BME280;48553;50.766;2.900;2024-03-08T08:49:44;100199.97;;;6.78;90.89
60852;BME280;48553;50.766;2.900;2024-03-08T08:52:46;100185.66;;;6.90;90.58
60852;BME280;48553;50.766;2.900;2024-03-08T08:55:47;100195.09;;;7.01;90.32
60852;BME280;48553;50.766;2.900;2024-03-08T08:58:48;100189.78;;;7.14;89.86
60852;BME280;48553;50.766;2.900;2024-03-08T09:01:49;100186.03;;;7.27;89.48
60852;BME280;48553;50.766;2.900;2024-03-08T09:04:50;100188.06;;;7.39;89.35
60852;BME280;48553;50.766;2.900;2024-03-08T09:07:51;100175.31;;;7.51;89.06
60852;BME280;48553;50.766;2.900;2024-03-08T09:10:51;100169.66;;;7.65;88.70
60852;BME280;48553;50.766;2.900;2024-03-08T09:13:51;100161.69;;;7.81;88.30
60852;BME280;48553;50.766;2.900;2024-03-08T09:16:53;100160.59;;;7.94;88.25
60852;BME280;48553;50.766;2.900;2024-03-08T09:19:53;100152.34;;;8.03;87.94
60852;BME280;48553;50.766;2.900;2024-03-08T09:22:54;100140.97;;;8.22;88.23
60852;BME280;48553;50.766;2.900;2024-03-08T09:25:55;100144.53;;;8.35;87.27
60852;BME280;48553;50.766;2.900;2024-03-08T09:28:55;100132.41;;;8.45;87.31
60852;BME280;48553;50.766;2.900;2024-03-08T09:31:56;100141.13;;;8.59;86.58
60852;BME280;48553;50.766;2.900;2024-03-08T09:34:56;100121.09;;;8.67;87.39
60852;BME280;48553;50.766;2.900;2024-03-08T09:37:57;100131.47;;;8.74;87.52
60852;BME280;48553;50.766;2.900;2024-03-08T09:40:57;100122.53;;;8.86;87.05
60852;BME280;48553;50.766;2.900;2024-03-08T09:43:57;100123.22;;;8.95;87.23
60852;BME280;48553;50.766;2.900;2024-03-08T09:47:00;100122.44;;;9.07;87.07
60852;BME280;48553;50.766;2.900;2024-03-08T09:50:02;100120.13;;;9.21;85.65
60852;BME280;48553;50.766;2.900;2024-03-08T09:53:03;100099.72;;;9.31;86.42
60852;BME280;48553;50.766;2.900;2024-03-08T09:56:04;100091.53;;;9.43;86.50
60852;BME280;48553;50.766;2.900;2024-03-08T09:59:05;100087.19;;;9.54;86.22
60852;BME280;48553;50.766;2.900;2024-03-08T10:02:25;100083.16;;;9.64;86.31
60852;BME280;48553;50.766;2.900;2024-03-08T10:05:26;100084.63;;;9.74;86.82
60852;BME280;48553;50.766;2.900;2024-03-08T10:08:27;100079.56;;;9.88;86.16
60852;BME280;48553;50.766;2.900;2024-03-08T10:11:30;100071.75;;;10.02;85.56
60852;BME280;48553;50.766;2.900;2024-03-08T10:14:31;100066.22;;;10.15;86.05
60852;BME280;48553;50.766;2.900;2024-03-08T10:17:31;100062.53;;;10.23;85.47
60852;BME280;48553;50.766;2.900;2024-03-08T10:20:33;100059.84;;;10.39;85.03
60852;BME280;48553;50.766;2.900;2024-03-08T10:23:34;100052.72;;;10.50;84.92
60852;BME280;48553;50.766;2.900;2024-03-08T10:26:36;100053.22;;;10.56;84.96
60852;BME280;48553;50.766;2.900;2024-03-08T10:29:37;100034.75;;;10.69;84.58
60852;BME280;48553;50.766;2.900;2024-03-08T10:32:42;100031.75;;;10.74;84.58
60852;BME280;48553;50.766;2.900;2024-03-08T10:35:42;100025.66;;;10.80;84.00
60852;BME280;48553;50.766;2.900;2024-03-08T10:38:44;100021.22;;;10.92;84.47
60852;BME280;48553;50.766;2.900;2024-03-08T10:41:53;100019.69;;;11.10;84.10
60852;BME280;48553;50.766;2.900;2024-03-08T10:45:13;100013.66;;;11.20;83.34
60852;BME280;48553;50.766;2.900;2024-03-08T10:48:29;99997.00;;;11.29;83.82
60852;BME280;48553;50.766;2.900;2024-03-08T10:51:32;99979.59;;;11.41;83.90
60852;BME280;48553;50.766;2.900;2024-03-08T10:54:33;99982.56;;;11.52;83.59
60852;BME280;48553;50.766;2.900;2024-03-08T10:57:35;99980.03;;;11.62;83.18
60852;BME280;48553;50.766;2.900;2024-03-08T11:00:38;99976.28;;;11.70;83.21
60852;BME280;48553;50.766;2.900;2024-03-08T11:06:45;99981.41;;;11.91;82.95
60852;BME280;48553;50.766;2.900;2024-03-08T11:09:48;99978.06;;;12.02;82.57
60852;BME280;48553;50.766;2.900;2024-03-08T11:12:49;99963.00;;;12.15;82.87
60852;BME280;48553;50.766;2.900;2024-03-08T11:15:49;99968.25;;;12.24;82.49
60852;BME280;48553;50.766;2.900;2024-03-08T11:18:49;99965.56;;;12.27;81.50
60852;BME280;48553;50.766;2.900;2024-03-08T11:22:03;99964.66;;;12.43;81.85
60852;BME280;48553;50.766;2.900;2024-03-08T11:25:04;99962.09;;;12.53;81.11
60852;BME280;48553;50.766;2.900;2024-03-08T11:31:24;99959.66;;;12.75;80.59
60852;BME280;48553;50.766;2.900;2024-03-08T11:34:25;99949.53;;;12.83;80.78
60852;BME280;48553;50.766;2.900;2024-03-08T11:37:28;99948.13;;;12.92;80.73
60852;BME280;48553;50.766;2.900;2024-03-08T11:40:30;99950.59;;;13.01;81.49
60852;BME280;48553;50.766;2.900;2024-03-08T11:43:33;99948.00;;;13.12;80.97
60852;BME280;48553;50.766;2.900;2024-03-08T11:46:34;99930.44;;;13.24;80.64
60852;BME280;48553;50.766;2.900;2024-03-08T11:49:34;99944.25;;;13.27;79.70
60852;BME280;48553;50.766;2.900;2024-03-08T11:52:34;99942.41;;;13.35;80.13
60852;BME280;48553;50.766;2.900;2024-03-08T11:55:35;99924.38;;;13.38;78.81
60852;BME280;48553;50.766;2.900;2024-03-08T11:58:36;99928.38;;;13.44;80.21
60852;BME280;48553;50.766;2.900;2024-03-08T12:01:37;99923.34;;;13.53;80.00
60852;BME280;48553;50.766;2.900;2024-03-08T12:04:37;99912.81;;;13.58;79.14
60852;BME280;48553;50.766;2.900;2024-03-08T12:07:38;99917.19;;;13.63;79.09
60852;BME280;48553;50.766;2.900;2024-03-08T12:10:40;99906.63;;;13.69;79.00
60852;BME280;48553;50.766;2.900;2024-03-08T12:13:41;99904.34;;;13.74;79.07
60852;BME280;48553;50.766;2.900;2024-03-08T12:16:41;99899.97;;;13.70;79.08
60852;BME280;48553;50.766;2.900;2024-03-08T12:19:46;99900.03;;;13.77;78.83
60852;BME280;48553;50.766;2.900;2024-03-08T12:22:47;99878.44;;;13.83;79.10
60852;BME280;48553;50.766;2.900;2024-03-08T12:25:49;99882.91;;;13.98;77.31
60852;BME280;48553;50.766;2.900;2024-03-08T12:28:49;99888.03;;;13.99;78.37
60852;BME280;48553;50.766;2.900;2024-03-08T12:31:58;99872.75;;;14.06;78.27
60852;BME280;48553;50.766;2.900;2024-03-08T12:35:00;99874.75;;;14.12;77.43
60852;BME280;48553;50.766;2.900;2024-03-08T12:38:05;99866.09;;;14.14;78.07
60852;BME280;48553;50.766;2.900;2024-03-08T12:41:08;99860.28;;;14.23;77.42
60852;BME280;48553;50.766;2.900;2024-03-08T12:44:08;99854.72;;;14.15;78.60
60852;BME280;48553;50.766;2.900;2024-03-08T12:47:11;99858.34;;;14.27;77.57
60852;BME280;48553;50.766;2.900;2024-03-08T12:50:11;99836.75;;;14.36;76.52
60852;BME280;48553;50.766;2.900;2024-03-08T12:53:12;99833.94;;;14.32;78.00
60852;BME280;48553;50.766;2.900;2024-03-08T12:56:19;99831.63;;;14.38;77.55
60852;BME280;48553;50.766;2.900;2024-03-08T12:59:28;99823.78;;;14.40;77.20
60852;BME280;48553;50.766;2.900;2024-03-08T13:02:29;99815.91;;;14.42;77.15
60852;BME280;48553;50.766;2.900;2024-03-08T13:05:31;99806.06;;;14.41;76.84
60852;BME280;48553;50.766;2.900;2024-03-08T13:08:31;99800.09;;;14.32;77.64
60852;BME280;48553;50.766;2.900;2024-03-08T13:11:36;99799.69;;;14.30;77.65
60852;BME280;48553;50.766;2.900;2024-03-08T13:14:36;99789.47;;;14.34;77.39
60852;BME280;48553;50.766;2.900;2024-03-08T13:17:37;99784.78;;;14.41;78.01
60852;BME280;48553;50.766;2.900;2024-03-08T13:20:40;99778.06;;;14.39;78.13
60852;BME280;48553;50.766;2.900;2024-03-08T13:23:44;99774.94;;;14.44;78.04
60852;BME280;48553;50.766;2.900;2024-03-08T13:26:49;99758.41;;;14.44;77.34
60852;BME280;48553;50.766;2.900;2024-03-08T13:29:50;99756.88;;;14.50;76.64
60852;BME280;48553;50.766;2.900;2024-03-08T13:32:54;99766.31;;;14.49;77.07
60852;BME280;48553;50.766;2.900;2024-03-08T13:35:55;99755.69;;;14.48;78.48
60852;BME280;48553;50.766;2.900;2024-03-08T13:38:57;99749.34;;;14.44;78.44
60852;BME280;48553;50.766;2.900;2024-03-08T13:41:59;99746.69;;;14.54;76.91
60852;BME280;48553;50.766;2.900;2024-03-08T13:44:59;99743.13;;;14.57;78.40
60852;BME280;48553;50.766;2.900;2024-03-08T13:48:00;99733.69;;;14.58;76.97
60852;BME280;48553;50.766;2.900;2024-03-08T13:51:00;99729.75;;;14.59;77.22
60852;BME280;48553;50.766;2.900;2024-03-08T13:54:01;99731.34;;;14.60;77.97
60852;BME280;48553;50.766;2.900;2024-03-08T13:57:01;99720.66;;;14.52;78.64
60852;BME280;48553;50.766;2.900;2024-03-08T14:00:04;99719.44;;;14.42;78.17
60852;BME280;48553;50.766;2.900;2024-03-08T14:03:07;99715.84;;;14.41;79.51
60852;BME280;48553;50.766;2.900;2024-03-08T14:06:08;99715.84;;;14.34;78.41
60852;BME280;48553;50.766;2.900;2024-03-08T14:09:09;99708.84;;;14.51;77.51
60852;BME280;48553;50.766;2.900;2024-03-08T14:12:12;99708.41;;;14.42;77.67
60852;BME280;48553;50.766;2.900;2024-03-08T14:15:14;99694.22;;;14.51;78.10
60852;BME280;48553;50.766;2.900;2024-03-08T14:18:15;99690.69;;;14.50;77.38
60852;BME280;48553;50.766;2.900;2024-03-08T14:21:17;99680.84;;;14.53;76.68
60852;BME280;48553;50.766;2.900;2024-03-08T14:24:17;99676.09;;;14.35;78.42
60852;BME280;48553;50.766;2.900;2024-03-08T14:27:18;99668.13;;;14.23;78.95
60852;BME280;48553;50.766;2.900;2024-03-08T14:30:20;99663.78;;;14.18;79.54
60852;BME280;48553;50.766;2.900;2024-03-08T14:33:32;99660.66;;;14.24;78.21
60852;BME280;48553;50.766;2.900;2024-03-08T14:36:33;99657.16;;;14.27;78.06
60852;BME280;48553;50.766;2.900;2024-03-08T14:39:33;99651.59;;;14.23;78.90
60852;BME280;48553;50.766;2.900;2024-03-08T14:42:35;99657.13;;;14.30;75.47
60852;BME280;48553;50.766;2.900;2024-03-08T14:45:35;99641.78;;;14.29;77.69
60852;BME280;48553;50.766;2.900;2024-03-08T14:48:38;99644.50;;;14.15;78.62
60852;BME280;48553;50.766;2.900;2024-03-08T14:51:38;99629.47;;;14.05;78.84
60852;BME280;48553;50.766;2.900;2024-03-08T14:54:39;99635.34;;;13.96;79.31
60852;BME280;48553;50.766;2.900;2024-03-08T14:57:40;99629.88;;;14.07;79.79
60852;BME280;48553;50.766;2.900;2024-03-08T15:00:41;99622.38;;;13.97;79.14
60852;BME280;48553;50.766;2.900;2024-03-08T15:03:42;99611.34;;;13.93;79.91
60852;BME280;48553;50.766;2.900;2024-03-08T15:06:45;99605.81;;;13.90;79.88
60852;BME280;48553;50.766;2.900;2024-03-08T15:09:48;99607.75;;;13.89;80.66
60852;BME280;48553;50.766;2.900;2024-03-08T15:12:48;99601.03;;;13.79;79.75
60852;BME280;48553;50.766;2.900;2024-03-08T15:15:50;99596.72;;;13.78;80.58
60852;BME280;48553;50.766;2.900;2024-03-08T15:18:54;99599.44;;;13.75;81.19
60852;BME280;48553;50.766;2.900;2024-03-08T15:21:55;99594.66;;;13.61;81.52
60852;BME280;48553;50.766;2.900;2024-03-08T15:24:56;99591.84;;;13.54;81.36
60852;BME280;48553;50.766;2.900;2024-03-08T15:27:58;99583.56;;;13.50;80.21
60852;BME280;48553;50.766;2.900;2024-03-08T15:30:59;99585.91;;;13.45;82.01
60852;BME280;48553;50.766;2.900;2024-03-08T15:34:05;99581.09;;;13.34;80.63
60852;BME280;48553;50.766;2.900;2024-03-08T15:37:07;99592.03;;;13.27;81.93
60852;BME280;48553;50.766;2.900;2024-03-08T15:40:12;99590.81;;;13.21;81.93
60852;BME280;48553;50.766;2.900;2024-03-08T15:43:21;99582.56;;;13.18;81.91
60852;BME280;48553;50.766;2.900;2024-03-08T15:46:22;99588.00;;;13.10;82.65
60852;BME280;48553;50.766;2.900;2024-03-08T15:49:22;99577.31;;;13.02;83.06
60852;BME280;48553;50.766;2.900;2024-03-08T15:52:24;99572.56;;;12.95;83.16
60852;BME280;48553;50.766;2.900;2024-03-08T15:55:25;99585.47;;;12.91;83.81
60852;BME280;48553;50.766;2.900;2024-03-08T15:58:27;99572.47;;;12.84;83.66
60852;BME280;48553;50.766;2.900;2024-03-08T16:01:27;99575.56;;;12.79;82.65
60852;BME280;48553;50.766;2.900;2024-03-08T16:04:28;99566.84;;;12.70;83.13
60852;BME280;48553;50.766;2.900;2024-03-08T16:07:30;99566.38;;;12.64;83.93